Time;durP1;ratioP1;P1;durP2;ratioP2;P2;SDS_P1;SDS_P2;PMS_P1;PMS_P2;Temp;Humidity;BMP_temperature;BMP_pressure;BME280_temperature;BME280_humidity;BME280_pressure;Samples;Min_cycle;Max_cycle;Signal;HPM_P1;HPM_P2
2023/07/16 00:01:25;;;;;;;3.72;2.65;;;20.10;99.90;;;;;;5066600;28;20243;-62
2023/07/16 00:03:53;;;;;;;3.25;2.60;;;20.10;99.90;;;;;;5054541;28;20213;-62
2023/07/16 00:06:21;;;;;;;5.25;2.90;;;20.10;99.90;;;;;;5063916;28;20260;-61
2023/07/16 00:08:49;;;;;;;7.60;2.67;;;20.10;99.90;;;;;;5061472;28;20244;-62
2023/07/16 00:11:17;;;;;;;2.88;2.67;;;20.10;99.90;;;;;;5056755;28;20233;-62
2023/07/16 00:13:47;;;;;;;4.00;2.50;;;20.10;99.90;;;;;;5067413;28;20662;-62
2023/07/16 00:16:16;;;;;;;3.05;2.72;;;20.10;99.90;;;;;;5056460;28;20228;-61
2023/07/16 00:18:45;;;;;;;4.72;2.67;;;20.10;99.90;;;;;;5062756;28;20205;-62
2023/07/16 00:21:13;;;;;;;7.05;2.55;;;20.00;99.90;;;;;;5068242;28;20258;-62
2023/07/16 00:23:41;;;;;;;2.80;2.60;;;20.00;99.90;;;;;;5057903;28;20203;-62
2023/07/16 00:26:09;;;;;;;7.85;2.60;;;20.00;99.90;;;;;;5069152;28;20263;-62
2023/07/16 00:28:37;;;;;;;8.43;2.78;;;20.00;99.90;;;;;;5054103;28;20622;-61
2023/07/16 00:31:05;;;;;;;7.55;2.10;;;20.00;99.90;;;;;;5054333;28;20209;-62
2023/07/16 00:33:34;;;;;;;3.17;2.00;;;20.00;99.90;;;;;;5054488;28;20730;-62
2023/07/16 00:36:02;;;;;;;4.75;2.08;;;19.90;99.90;;;;;;5041940;28;20800;-62
2023/07/16 00:38:31;;;;;;;5.18;2.30;;;19.90;99.90;;;;;;5065851;28;20703;-62
2023/07/16 00:40:59;;;;;;;2.10;1.90;;;19.90;99.90;;;;;;5066214;28;20211;-62
2023/07/16 00:43:27;;;;;;;4.00;1.90;;;19.90;99.90;;;;;;5058203;28;20202;-62
2023/07/16 00:45:55;;;;;;;2.80;2.20;;;19.80;99.90;;;;;;5070339;28;20275;-62
2023/07/16 00:48:23;;;;;;;4.35;1.50;;;19.80;99.90;;;;;;5060644;28;20250;-61
2023/07/16 00:50:52;;;;;;;3.42;1.83;;;19.80;99.90;;;;;;5063420;28;20588;-62
2023/07/16 00:53:20;;;;;;;3.47;1.70;;;19.80;99.90;;;;;;5064521;28;20614;-62
2023/07/16 00:55:48;;;;;;;2.75;1.60;;;19.70;99.90;;;;;;5053822;28;20236;-62
2023/07/16 00:58:16;;;;;;;2.47;1.67;;;19.80;99.90;;;;;;5059456;28;20224;-62
2023/07/16 01:00:44;;;;;;;1.85;1.40;;;19.70;99.90;;;;;;5063900;28;20197;-62
2023/07/16 01:03:14;;;;;;;5.10;1.58;;;19.70;99.90;;;;;;5066196;28;20255;-62
2023/07/16 01:05:46;;;;;;;1.80;1.70;;;19.70;99.90;;;;;;5056716;28;20255;-62
2023/07/16 01:08:17;;;;;;;3.22;1.67;;;19.70;99.90;;;;;;5068019;28;20205;-62
2023/07/16 01:10:44;;;;;;;2.42;1.58;;;19.70;99.90;;;;;;5063502;28;20706;-62
2023/07/16 01:13:12;;;;;;;2.20;1.80;;;19.60;99.90;;;;;;5059601;28;20259;-61
2023/07/16 01:15:40;;;;;;;3.33;1.80;;;19.60;99.90;;;;;;5069619;28;20973;-62
2023/07/16 01:18:08;;;;;;;9.02;1.83;;;19.50;99.90;;;;;;5058150;28;20242;-63
2023/07/16 01:20:36;;;;;;;4.22;2.22;;;19.50;99.90;;;;;;5064393;28;20263;-62
2023/07/16 01:23:27;;;;;;;2.38;2.05;;;19.50;99.90;;;;;;5065194;28;20205;-62
2023/07/16 01:26:07;;;;;;;3.25;1.70;;;19.50;99.90;;;;;;5056529;28;20305;-62
2023/07/16 01:29:08;;;;;;;7.38;1.92;;;19.40;99.90;;;;;;5064447;28;20232;-63
2023/07/16 01:31:37;;;;;;;2.33;1.50;;;19.40;99.90;;;;;;5059594;28;20213;-62
2023/07/16 01:34:05;;;;;;;3.53;1.95;;;19.40;99.90;;;;;;5057352;28;20279;-61
2023/07/16 01:36:33;;;;;;;3.55;1.60;;;19.40;99.90;;;;;;5064380;28;20708;-62
2023/07/16 01:39:01;;;;;;;5.45;1.95;;;19.30;99.90;;;;;;5064912;28;20283;-62
2023/07/16 01:41:29;;;;;;;4.07;1.58;;;19.30;99.90;;;;;;5056950;28;20263;-62
2023/07/16 01:43:57;;;;;;;3.28;1.30;;;19.30;99.90;;;;;;5069304;28;20262;-62
2023/07/16 01:46:25;;;;;;;4.50;1.98;;;19.30;99.90;;;;;;5059672;28;20260;-62
2023/07/16 01:48:54;;;;;;;2.13;1.58;;;19.20;99.90;;;;;;5061437;28;20585;-62
2023/07/16 01:51:22;;;;;;;3.50;1.55;;;19.20;99.90;;;;;;5067891;28;20729;-62
2023/07/16 01:53:50;;;;;;;3.63;1.67;;;19.20;99.90;;;;;;5070412;28;20205;-62
2023/07/16 01:56:18;;;;;;;4.68;1.83;;;19.20;99.90;;;;;;5073937;22;20244;-62
2023/07/16 01:58:46;;;;;;;8.45;2.10;;;19.20;99.90;;;;;;5072063;28;20225;-62
2023/07/16 02:01:14;;;;;;;1.90;1.80;;;19.20;99.90;;;;;;5086371;28;20257;-62
2023/07/16 02:03:42;;;;;;;5.68;1.98;;;19.20;99.90;;;;;;5075739;28;20262;-62
2023/07/16 02:06:13;;;;;;;7.28;1.63;;;19.20;99.90;;;;;;5092395;28;20282;-62
2023/07/16 02:08:41;;;;;;;3.58;1.55;;;19.10;99.90;;;;;;5082828;28;20201;-62
2023/07/16 02:11:09;;;;;;;7.63;1.63;;;19.10;99.90;;;;;;5085420;28;20231;-62
2023/07/16 02:13:37;;;;;;;6.28;2.00;;;19.10;99.90;;;;;;5074446;28;20228;-62
2023/07/16 02:16:05;;;;;;;6.93;1.58;;;19.00;99.90;;;;;;5091468;28;20263;-62
2023/07/16 02:18:33;;;;;;;3.60;1.67;;;18.90;99.90;;;;;;5091524;28;20606;-62
2023/07/16 02:21:02;;;;;;;3.53;1.70;;;18.90;99.90;;;;;;5080026;28;20232;-62
2023/07/16 02:23:31;;;;;;;3.65;1.67;;;18.80;99.90;;;;;;5086974;28;20648;-62
2023/07/16 02:25:59;;;;;;;4.28;1.42;;;18.80;99.90;;;;;;5087064;28;20236;-62
2023/07/16 02:28:27;;;;;;;4.03;1.42;;;18.80;99.90;;;;;;5079826;28;20204;-62
2023/07/16 02:30:55;;;;;;;5.38;2.10;;;18.80;99.90;;;;;;5080718;28;20254;-62
2023/07/16 02:33:23;;;;;;;5.68;1.77;;;18.80;99.90;;;;;;5087400;28;20196;-62
2023/07/16 02:35:52;;;;;;;2.47;1.92;;;18.70;99.90;;;;;;5075028;28;20204;-62
2023/07/16 02:38:20;;;;;;;5.22;1.80;;;18.70;99.90;;;;;;5085220;28;20587;-62
2023/07/16 02:40:49;;;;;;;7.95;1.92;;;18.70;99.90;;;;;;5081766;28;20275;-62
2023/07/16 02:43:17;;;;;;;4.72;1.80;;;18.70;99.90;;;;;;5077453;28;20229;-62
2023/07/16 02:45:45;;;;;;;5.32;1.75;;;18.70;99.90;;;;;;5073008;28;20300;-62
2023/07/16 02:48:14;;;;;;;3.38;1.90;;;18.70;99.90;;;;;;5086186;28;20246;-62
2023/07/16 02:50:42;;;;;;;7.15;2.00;;;18.60;99.90;;;;;;5080717;28;20203;-62
2023/07/16 02:53:10;;;;;;;2.63;1.92;;;18.60;99.90;;;;;;5078227;28;20189;-64
2023/07/16 02:55:38;;;;;;;7.28;2.17;;;18.60;99.90;;;;;;5071827;28;20204;-62
2023/07/16 02:58:07;;;;;;;3.72;2.33;;;18.50;99.90;;;;;;5086792;28;20271;-62
2023/07/16 03:00:35;;;;;;;7.88;2.47;;;18.40;99.90;;;;;;5071347;28;20335;-61
2023/07/16 03:03:03;;;;;;;7.10;2.28;;;18.40;99.90;;;;;;5079250;28;20239;-62
2023/07/16 03:05:31;;;;;;;5.13;1.80;;;18.40;99.90;;;;;;5083347;28;20739;-62
2023/07/16 03:07:59;;;;;;;5.85;1.92;;;18.30;99.90;;;;;;5051395;28;20278;-62
2023/07/16 03:10:27;;;;;;;6.97;2.33;;;18.20;99.90;;;;;;5066640;28;20219;-62
2023/07/16 03:12:56;;;;;;;4.43;2.10;;;18.20;99.90;;;;;;5079743;28;20683;-62
2023/07/16 03:15:25;;;;;;;7.55;2.50;;;18.20;99.90;;;;;;5086415;28;20227;-61
2023/07/16 03:17:53;;;;;;;7.32;2.20;;;18.10;99.90;;;;;;5074480;28;20223;-62
2023/07/16 03:20:21;;;;;;;4.30;2.30;;;18.10;99.90;;;;;;5084319;28;20205;-62
2023/07/16 03:22:49;;;;;;;8.32;2.28;;;18.10;99.90;;;;;;5081564;28;20726;-62
2023/07/16 03:25:17;;;;;;;9.07;2.70;;;18.00;99.90;;;;;;5076699;28;20201;-62
2023/07/16 03:27:45;;;;;;;7.55;2.65;;;18.00;99.90;;;;;;5072753;28;20311;-62
2023/07/16 03:30:13;;;;;;;8.55;2.42;;;18.00;99.90;;;;;;5085613;28;20224;-62
2023/07/16 03:32:42;;;;;;;8.23;2.35;;;17.90;99.90;;;;;;5080418;28;20279;-62
2023/07/16 03:35:19;;;;;;;6.60;2.35;;;17.90;99.90;;;;;;5076460;28;20279;-62
2023/07/16 03:37:51;;;;;;;6.35;2.60;;;17.90;99.90;;;;;;5071028;28;20225;-62
2023/07/16 03:40:25;;;;;;;12.90;3.00;;;17.90;99.90;;;;;;5077270;28;20327;-62
2023/07/16 03:42:53;;;;;;;7.65;2.40;;;17.90;99.90;;;;;;5080018;28;20228;-63
2023/07/16 03:45:21;;;;;;;5.93;2.60;;;17.90;99.90;;;;;;5085471;28;20228;-59
2023/07/16 03:47:50;;;;;;;8.20;2.72;;;17.90;99.90;;;;;;5074318;28;20300;-58
2023/07/16 03:50:18;;;;;;;9.90;2.45;;;17.80;99.90;;;;;;5085034;28;20307;-60
2023/07/16 03:52:46;;;;;;;5.95;2.35;;;17.80;99.90;;;;;;5070949;28;20270;-58
2023/07/16 03:55:14;;;;;;;6.50;2.38;;;17.80;99.90;;;;;;5088798;28;20204;-63
2023/07/16 03:57:42;;;;;;;8.77;2.30;;;17.80;99.90;;;;;;5078610;28;20278;-63
2023/07/16 04:00:11;;;;;;;9.27;2.53;;;17.80;99.90;;;;;;5089321;28;20656;-63
2023/07/16 04:02:39;;;;;;;8.52;2.83;;;17.80;99.90;;;;;;5083934;28;20269;-64
2023/07/16 04:05:09;;;;;;;10.10;2.40;;;17.70;99.90;;;;;;5081839;28;20672;-64
2023/07/16 04:07:37;;;;;;;6.68;2.53;;;17.80;99.90;;;;;;5091622;28;20228;-64
2023/07/16 04:10:06;;;;;;;11.48;2.50;;;17.80;99.90;;;;;;5079086;28;20192;-62
2023/07/16 04:12:34;;;;;;;6.78;2.30;;;17.70;99.90;;;;;;5086286;28;20204;-62
2023/07/16 04:15:02;;;;;;;13.07;2.58;;;17.70;99.90;;;;;;5086928;28;20287;-62
2023/07/16 04:17:30;;;;;;;5.43;2.13;;;17.80;99.90;;;;;;5094268;28;20263;-62
2023/07/16 04:19:58;;;;;;;10.00;2.30;;;17.80;99.90;;;;;;5077447;28;20694;-62
2023/07/16 04:22:27;;;;;;;7.15;2.50;;;17.70;99.90;;;;;;5087173;28;20189;-62
2023/07/16 04:24:55;;;;;;;8.77;2.15;;;17.70;99.90;;;;;;5073995;28;20193;-62
2023/07/16 04:27:23;;;;;;;8.55;2.70;;;17.80;99.90;;;;;;5089653;28;20224;-62
2023/07/16 04:29:51;;;;;;;4.93;2.13;;;17.70;99.90;;;;;;5077833;28;20192;-61
2023/07/16 04:32:19;;;;;;;13.07;2.78;;;17.80;99.90;;;;;;5094884;28;20223;-64
2023/07/16 04:34:47;;;;;;;7.82;2.38;;;17.80;99.90;;;;;;5083969;28;20216;-63
2023/07/16 04:37:15;;;;;;;8.73;2.55;;;17.80;99.90;;;;;;5088715;28;20251;-64
2023/07/16 04:39:44;;;;;;;7.65;2.80;;;17.80;99.90;;;;;;5077917;28;20244;-63
2023/07/16 04:42:12;;;;;;;6.35;2.30;;;17.80;99.90;;;;;;5089084;28;20247;-63
2023/07/16 04:44:40;;;;;;;10.15;2.58;;;17.80;99.90;;;;;;5083586;28;20211;-62
2023/07/16 04:47:08;;;;;;;7.47;2.35;;;17.80;99.90;;;;;;5094117;28;20270;-64
2023/07/16 04:49:36;;;;;;;6.85;2.10;;;17.80;99.90;;;;;;5077442;28;20197;-64
2023/07/16 04:52:05;;;;;;;11.15;2.67;;;17.80;99.90;;;;;;5093486;28;20204;-64
2023/07/16 04:54:36;;;;;;;9.93;2.42;;;17.80;99.90;;;;;;5085611;28;20235;-63
2023/07/16 04:57:07;;;;;;;4.93;1.88;;;17.90;99.90;;;;;;5086620;28;20257;-64
2023/07/16 04:59:35;;;;;;;8.15;2.53;;;17.90;99.90;;;;;;5077104;28;20674;-63
2023/07/16 05:02:05;;;;;;;5.30;2.45;;;17.90;99.90;;;;;;5089729;28;20204;-63
2023/07/16 05:04:33;;;;;;;8.75;2.30;;;17.90;99.90;;;;;;5081669;28;20650;-62
2023/07/16 05:07:02;;;;;;;7.15;2.58;;;17.90;99.90;;;;;;5081814;28;20310;-63
2023/07/16 05:09:30;;;;;;;9.88;2.47;;;17.90;99.90;;;;;;5090256;28;20717;-64
2023/07/16 05:11:58;;;;;;;12.70;2.50;;;17.90;99.90;;;;;;5077139;28;20197;-64
2023/07/16 05:14:28;;;;;;;10.75;2.47;;;17.90;99.90;;;;;;5085912;28;20196;-63
2023/07/16 05:16:56;;;;;;;9.60;2.35;;;17.90;99.90;;;;;;5084985;28;20637;-63
2023/07/16 05:19:24;;;;;;;9.77;2.55;;;17.90;99.90;;;;;;5078298;28;20228;-64
2023/07/16 05:21:52;;;;;;;11.13;2.47;;;17.90;99.90;;;;;;5089479;28;20200;-63
2023/07/16 05:24:20;;;;;;;9.88;2.78;;;18.00;99.90;;;;;;5073092;28;20209;-62
2023/07/16 05:26:49;;;;;;;7.10;2.38;;;18.00;99.90;;;;;;5083189;28;20252;-62
2023/07/16 05:29:17;;;;;;;9.35;2.22;;;18.00;99.90;;;;;;5078624;28;20254;-63
2023/07/16 05:31:47;;;;;;;6.32;2.30;;;18.00;99.90;;;;;;5089616;28;20215;-63
2023/07/16 05:34:15;;;;;;;4.03;2.38;;;18.00;99.90;;;;;;5078957;28;20204;-63
2023/07/16 05:36:44;;;;;;;6.97;2.13;;;18.10;99.90;;;;;;5083087;28;20231;-63
2023/07/16 05:39:12;;;;;;;4.95;2.38;;;18.00;99.90;;;;;;5086477;28;20204;-63
2023/07/16 05:41:40;;;;;;;3.45;2.20;;;18.10;99.90;;;;;;5076274;28;20209;-63
2023/07/16 05:44:09;;;;;;;11.95;2.20;;;18.10;99.90;;;;;;5087733;28;20288;-62
2023/07/16 05:46:37;;;;;;;7.63;2.72;;;18.10;99.90;;;;;;5081087;28;20302;-62
2023/07/16 05:49:06;;;;;;;6.10;2.78;;;18.20;99.90;;;;;;5079845;28;20201;-62
2023/07/16 05:51:34;;;;;;;6.65;2.30;;;18.20;99.90;;;;;;5087639;28;20205;-62
2023/07/16 05:54:02;;;;;;;7.55;2.47;;;18.20;99.90;;;;;;5084039;28;20259;-62
2023/07/16 05:56:30;;;;;;;6.25;2.30;;;18.30;99.90;;;;;;5085519;28;20240;-62
2023/07/16 05:58:58;;;;;;;9.85;2.70;;;18.30;99.90;;;;;;5081610;28;20209;-62
2023/07/16 06:01:26;;;;;;;5.72;2.85;;;18.30;99.90;;;;;;5085903;28;20285;-54
2023/07/16 06:03:54;;;;;;;6.53;2.72;;;18.30;99.90;;;;;;5083154;28;20254;-54
2023/07/16 06:06:23;;;;;;;6.72;2.75;;;18.40;99.90;;;;;;5086239;28;20605;-54
2023/07/16 06:08:51;;;;;;;5.85;2.50;;;18.40;99.90;;;;;;5082228;28;20250;-55
2023/07/16 06:11:19;;;;;;;10.02;3.00;;;18.40;99.90;;;;;;5091296;28;20254;-57
2023/07/16 06:13:47;;;;;;;6.53;2.50;;;18.40;99.90;;;;;;5075717;28;20259;-56
2023/07/16 06:16:15;;;;;;;9.40;2.20;;;18.40;99.90;;;;;;5082136;28;20228;-56
2023/07/16 06:18:44;;;;;;;11.52;2.80;;;18.50;99.90;;;;;;5076346;28;20582;-57
2023/07/16 06:21:11;;;;;;;6.50;2.90;;;18.70;99.90;;;;;;5081788;28;20289;-56
2023/07/16 06:23:41;;;;;;;5.78;2.50;;;18.80;99.90;;;;;;5077318;28;20247;-55
2023/07/16 06:26:09;;;;;;;11.00;2.65;;;18.90;99.90;;;;;;5084210;28;20256;-56
2023/07/16 06:28:37;;;;;;;10.32;2.63;;;19.00;99.90;;;;;;5075466;28;20300;-54
2023/07/16 06:31:05;;;;;;;7.68;2.90;;;19.10;99.90;;;;;;5084704;28;20320;-56
2023/07/16 06:33:33;;;;;;;12.70;3.10;;;19.20;99.90;;;;;;5075222;28;20246;-56
2023/07/16 06:36:01;;;;;;;7.15;2.42;;;19.30;99.90;;;;;;5087689;28;20239;-56
2023/07/16 06:38:29;;;;;;;11.77;3.40;;;19.20;99.90;;;;;;5079445;28;20204;-56
2023/07/16 06:40:59;;;;;;;7.53;3.35;;;19.20;99.90;;;;;;5079084;28;20239;-57
2023/07/16 06:43:27;;;;;;;8.85;2.80;;;19.20;99.90;;;;;;5087653;28;20295;-57
2023/07/16 06:45:54;;;;;;;6.40;2.80;;;19.20;99.90;;;;;;5074801;28;20227;-56
2023/07/16 06:48:23;;;;;;;9.20;2.40;;;19.30;99.90;;;;;;5085069;28;20254;-57
2023/07/16 06:50:51;;;;;;;7.65;2.88;;;19.30;99.90;;;;;;5082384;28;20199;-59
2023/07/16 06:53:19;;;;;;;8.57;2.70;;;19.40;99.90;;;;;;5091391;28;20228;-57
2023/07/16 06:55:48;;;;;;;6.60;2.47;;;19.50;99.90;;;;;;5074581;28;20201;-58
2023/07/16 06:58:17;;;;;;;12.73;3.40;;;19.60;99.90;;;;;;5085579;28;20216;-56
2023/07/16 07:00:45;;;;;;;11.73;2.92;;;19.70;99.90;;;;;;5081640;28;20265;-56
2023/07/16 07:03:14;;;;;;;12.77;3.15;;;19.70;99.90;;;;;;5077547;28;20208;-58
2023/07/16 07:05:42;;;;;;;13.15;3.25;;;19.80;99.90;;;;;;5088189;28;20235;-57
2023/07/16 07:08:10;;;;;;;7.18;3.03;;;19.90;99.90;;;;;;5076488;28;20241;-57
2023/07/16 07:10:39;;;;;;;4.05;2.60;;;20.00;99.90;;;;;;5082661;28;20254;-57
2023/07/16 07:13:07;;;;;;;11.25;3.20;;;20.00;99.90;;;;;;5084380;28;20687;-57
2023/07/16 07:15:36;;;;;;;11.20;3.22;;;20.00;99.90;;;;;;5074516;28;20235;-58
2023/07/16 07:18:05;;;;;;;11.73;3.00;;;20.00;99.90;;;;;;5087208;28;20307;-57
2023/07/16 07:20:33;;;;;;;13.27;3.28;;;20.00;99.90;;;;;;5079679;28;20222;-56
2023/07/16 07:23:02;;;;;;;10.02;2.83;;;20.00;99.90;;;;;;5079382;28;20219;-56
2023/07/16 07:25:31;;;;;;;9.93;3.03;;;20.10;99.90;;;;;;5087446;28;20204;-57
2023/07/16 07:27:58;;;;;;;6.88;2.90;;;20.10;99.90;;;;;;5060588;28;20707;-56
2023/07/16 07:30:26;;;;;;;9.15;2.85;;;20.00;99.90;;;;;;5087496;28;20228;-56
2023/07/16 07:32:56;;;;;;;7.18;3.05;;;20.00;99.90;;;;;;5086643;28;20231;-56
2023/07/16 07:35:24;;;;;;;7.45;3.40;;;20.00;99.90;;;;;;5079780;28;20204;-58
2023/07/16 07:37:51;;;;;;;10.50;3.03;;;20.00;99.90;;;;;;5092019;28;20266;-56
2023/07/16 07:40:20;;;;;;;4.35;2.88;;;20.10;99.90;;;;;;5081679;28;20232;-56
2023/07/16 07:42:48;;;;;;;9.50;3.10;;;20.20;99.90;;;;;;5084751;28;20201;-59
2023/07/16 07:45:16;;;;;;;7.10;3.13;;;20.30;99.90;;;;;;5089526;28;20235;-57
2023/07/16 07:47:44;;;;;;;6.10;3.17;;;20.20;99.90;;;;;;5078910;28;20647;-57
2023/07/16 07:50:13;;;;;;;10.80;3.67;;;20.20;99.90;;;;;;5089829;28;20703;-58
2023/07/16 07:52:41;;;;;;;8.57;3.45;;;20.10;99.90;;;;;;5074589;28;20201;-57
2023/07/16 07:55:10;;;;;;;9.60;3.15;;;20.20;99.90;;;;;;5088059;28;20235;-55
2023/07/16 07:57:37;;;;;;;7.80;2.60;;;20.30;99.90;;;;;;5078515;28;20260;-56
2023/07/16 08:00:11;;;;;;;10.20;3.08;;;20.50;99.90;;;;;;5090492;28;20197;-54
2023/07/16 08:02:39;;;;;;;8.98;3.60;;;20.70;99.90;;;;;;5083823;28;20790;-55
2023/07/16 08:05:08;;;;;;;8.43;3.05;;;20.80;99.90;;;;;;5088535;28;20239;-55
2023/07/16 08:07:38;;;;;;;8.75;2.72;;;20.90;99.90;;;;;;5089014;28;20251;-53
2023/07/16 08:10:06;;;;;;;7.30;3.10;;;20.90;99.90;;;;;;5072932;28;20283;-55
2023/07/16 08:12:34;;;;;;;9.20;3.20;;;21.00;99.90;;;;;;5084834;28;20665;-55
2023/07/16 08:15:02;;;;;;;8.40;2.80;;;21.10;99.90;;;;;;5083530;28;20255;-54
2023/07/16 08:17:30;;;;;;;9.07;2.78;;;21.10;99.90;;;;;;5074564;28;20224;-55
2023/07/16 08:19:59;;;;;;;8.57;2.90;;;21.10;99.90;;;;;;5061769;28;20216;-55
2023/07/16 08:22:27;;;;;;;10.13;3.03;;;21.10;99.90;;;;;;5086874;28;20221;-55
2023/07/16 08:24:56;;;;;;;6.20;2.60;;;21.20;99.90;;;;;;5085724;28;20241;-55
2023/07/16 08:27:24;;;;;;;7.28;2.97;;;21.20;99.90;;;;;;5085263;28;20265;-54
2023/07/16 08:29:52;;;;;;;8.38;2.28;;;21.20;99.90;;;;;;5090936;28;20219;-55
2023/07/16 08:32:21;;;;;;;7.35;2.50;;;21.20;99.90;;;;;;5080494;28;20228;-55
2023/07/16 08:34:49;;;;;;;7.50;2.58;;;21.40;99.90;;;;;;5086270;28;20219;-54
2023/07/16 08:37:16;;;;;;;7.22;2.45;;;21.40;99.90;;;;;;5082400;28;20252;-55
2023/07/16 08:39:44;;;;;;;8.93;2.50;;;21.40;99.90;;;;;;5082273;28;20656;-56
2023/07/16 08:42:14;;;;;;;5.05;2.05;;;21.40;99.90;;;;;;5085524;28;20255;-56
2023/07/16 08:44:41;;;;;;;8.30;2.58;;;21.50;99.90;;;;;;5092764;28;20208;-58
2023/07/16 08:47:09;;;;;;;6.22;2.60;;;21.50;99.90;;;;;;5094050;28;20223;-54
2023/07/16 08:49:37;;;;;;;12.73;2.40;;;21.50;99.90;;;;;;5093294;28;20641;-54
2023/07/16 08:52:06;;;;;;;6.10;2.20;;;21.60;99.90;;;;;;5073695;28;20200;-55
2023/07/16 08:54:34;;;;;;;5.05;1.95;;;21.60;99.90;;;;;;5082001;28;20196;-57
2023/07/16 08:57:02;;;;;;;9.73;2.63;;;21.80;99.90;;;;;;5081658;28;20319;-54
2023/07/16 08:59:32;;;;;;;8.95;2.30;;;21.80;99.90;;;;;;5090143;28;20741;-55
2023/07/16 09:01:59;;;;;;;6.65;2.35;;;22.00;99.90;;;;;;5060965;28;20711;-54
2023/07/16 09:04:29;;;;;;;7.63;2.20;;;22.10;99.90;;;;;;5086392;28;20212;-55
2023/07/16 09:06:57;;;;;;;5.65;2.33;;;22.10;99.90;;;;;;5085440;28;20220;-56
2023/07/16 09:09:25;;;;;;;4.95;2.45;;;22.20;99.90;;;;;;5078378;28;20229;-56
2023/07/16 09:11:53;;;;;;;7.40;2.50;;;22.40;99.90;;;;;;5090384;28;20659;-55
2023/07/16 09:14:21;;;;;;;5.15;2.63;;;22.60;99.90;;;;;;5080131;28;20303;-55
2023/07/16 09:16:51;;;;;;;5.47;2.13;;;22.60;99.90;;;;;;5082556;28;20232;-56
2023/07/16 09:19:19;;;;;;;8.10;2.80;;;22.40;99.90;;;;;;5087935;28;20219;-54
2023/07/16 09:21:47;;;;;;;8.80;2.35;;;22.40;99.90;;;;;;5079148;28;20270;-56
2023/07/16 09:24:15;;;;;;;5.40;2.30;;;22.50;99.90;;;;;;5085933;28;20210;-55
2023/07/16 09:26:50;;;;;;;5.15;2.30;;;22.50;99.90;;;;;;5083459;28;20228;-56
2023/07/16 09:29:18;;;;;;;7.32;2.63;;;22.50;99.90;;;;;;5082061;28;20551;-55
2023/07/16 09:31:58;;;;;;;5.97;2.35;;;22.50;99.90;;;;;;5076390;28;20240;-56
2023/07/16 09:34:28;;;;;;;3.65;2.10;;;22.60;99.90;;;;;;5085972;28;20287;-56
2023/07/16 09:36:57;;;;;;;5.22;2.00;;;22.70;99.90;;;;;;5083691;28;20228;-57
2023/07/16 09:39:25;;;;;;;8.63;2.50;;;23.10;99.90;;;;;;5077465;28;20204;-57
2023/07/16 09:41:53;;;;;;;5.13;2.53;;;23.30;99.90;;;;;;5089442;28;20724;-56
2023/07/16 09:44:21;;;;;;;7.47;2.55;;;23.50;99.90;;;;;;5079766;28;20332;-56
2023/07/16 09:46:49;;;;;;;4.85;2.40;;;23.80;99.90;;;;;;5082245;28;20252;-56
2023/07/16 09:49:18;;;;;;;4.07;2.25;;;23.90;99.90;;;;;;5087106;28;20203;-55
2023/07/16 09:51:46;;;;;;;6.10;2.42;;;24.10;99.90;;;;;;5073209;28;20250;-55
2023/07/16 09:54:14;;;;;;;5.68;2.58;;;24.30;99.90;;;;;;5078033;28;20235;-57
2023/07/16 09:56:44;;;;;;;5.95;2.60;;;24.40;99.90;;;;;;5082560;28;20719;-55
2023/07/16 09:59:14;;;;;;;9.65;2.67;;;24.50;99.90;;;;;;5086316;28;20667;-57
2023/07/16 10:01:41;;;;;;;8.85;2.00;;;24.60;99.90;;;;;;5076011;28;20283;-56
2023/07/16 10:04:13;;;;;;;4.75;2.42;;;24.70;99.90;;;;;;5087513;28;20232;-55
2023/07/16 10:06:56;;;;;;;6.18;2.60;;;24.70;99.90;;;;;;5076008;28;20600;-56
2023/07/16 10:09:36;;;;;;;5.78;2.60;;;24.90;99.90;;;;;;5092310;28;20251;-55
2023/07/16 10:12:14;;;;;;;6.25;2.42;;;25.10;99.90;;;;;;5084068;28;20191;-55
2023/07/16 10:14:43;;;;;;;7.70;2.33;;;25.30;99.90;;;;;;5068188;28;20200;-56
2023/07/16 10:17:15;;;;;;;2.92;1.90;;;25.40;99.90;;;;;;5085674;28;20721;-55
2023/07/16 10:19:56;;;;;;;6.35;2.45;;;25.40;99.90;;;;;;5075619;28;20251;-55
2023/07/16 10:22:38;;;;;;;5.82;2.38;;;25.40;99.90;;;;;;5084153;28;20311;-56
2023/07/16 10:25:09;;;;;;;4.30;2.50;;;25.40;99.90;;;;;;5076692;28;20548;-59
2023/07/16 10:27:37;;;;;;;4.97;2.08;;;25.50;99.90;;;;;;5088338;28;20273;-59
2023/07/16 10:30:06;;;;;;;4.47;2.47;;;25.20;99.90;;;;;;5073206;28;20201;-58
2023/07/16 10:32:34;;;;;;;5.03;2.42;;;24.90;99.90;;;;;;5075108;28;20668;-60
2023/07/16 10:35:02;;;;;;;4.53;2.50;;;24.50;99.90;;;;;;5081111;28;20258;-59
2023/07/16 10:37:30;;;;;;;5.45;2.38;;;24.70;99.90;;;;;;5088122;28;20227;-58
2023/07/16 10:40:00;;;;;;;6.40;2.80;;;25.00;99.90;;;;;;5058757;28;20735;-57
2023/07/16 10:42:28;;;;;;;5.90;2.25;;;25.10;99.90;;;;;;5084300;28;20243;-58
2023/07/16 10:44:59;;;;;;;9.73;2.40;;;24.90;99.90;;;;;;5083189;28;20196;-58
2023/07/16 10:47:30;;;;;;;6.45;2.60;;;24.60;99.90;;;;;;5074203;28;20297;-57
2023/07/16 10:49:59;;;;;;;5.55;2.22;;;25.00;99.90;;;;;;5056700;28;20207;-58
2023/07/16 10:52:27;;;;;;;5.13;2.25;;;25.50;99.90;;;;;;5089470;28;20200;-58
2023/07/16 10:54:55;;;;;;;5.72;2.40;;;25.90;99.90;;;;;;5078941;28;20251;-57
2023/07/16 10:57:24;;;;;;;7.22;2.40;;;26.10;99.90;;;;;;5085933;28;20255;-58
2023/07/16 10:59:52;;;;;;;3.20;2.15;;;26.40;99.90;;;;;;5074565;28;20232;-57
2023/07/16 11:02:22;;;;;;;10.30;2.53;;;26.80;99.90;;;;;;5084619;28;20252;-57
2023/07/16 11:04:50;;;;;;;4.88;2.00;;;26.70;99.90;;;;;;5081872;28;20199;-58
2023/07/16 11:07:18;;;;;;;4.70;2.42;;;27.10;99.90;;;;;;5077101;28;20231;-57
2023/07/16 11:09:47;;;;;;;5.43;2.28;;;27.40;99.90;;;;;;5088309;28;20694;-59
2023/07/16 11:12:16;;;;;;;5.50;2.63;;;27.50;99.90;;;;;;5077503;28;20196;-59
2023/07/16 11:14:46;;;;;;;6.68;2.42;;;27.40;99.90;;;;;;5081589;28;20729;-59
2023/07/16 11:17:14;;;;;;;4.80;2.10;;;27.30;99.90;;;;;;5085464;28;20252;-58
2023/07/16 11:19:45;;;;;;;5.30;2.40;;;27.20;99.90;;;;;;5074716;28;20244;-57
2023/07/16 11:22:14;;;;;;;4.22;2.50;;;27.30;99.90;;;;;;5086135;28;20214;-59
2023/07/16 11:24:43;;;;;;;4.72;2.30;;;27.60;99.30;;;;;;5080986;28;20200;-58
2023/07/16 11:27:14;;;;;;;6.25;2.13;;;27.90;98.70;;;;;;5077864;28;20278;-57
2023/07/16 11:29:47;;;;;;;4.68;1.83;;;28.30;98.50;;;;;;5088001;28;20269;-58
2023/07/16 11:32:26;;;;;;;5.88;2.20;;;28.60;97.10;;;;;;5077536;28;20204;-59
2023/07/16 11:34:54;;;;;;;6.65;2.20;;;28.90;96.60;;;;;;5079939;28;20201;-59
2023/07/16 11:37:22;;;;;;;5.72;2.15;;;29.20;96.20;;;;;;5086736;28;20220;-57
2023/07/16 11:39:50;;;;;;;11.20;2.60;;;29.00;95.70;;;;;;5074495;28;20711;-59
2023/07/16 11:42:24;;;;;;;6.30;2.22;;;29.00;95.30;;;;;;5084925;28;20232;-58
2023/07/16 11:44:54;;;;;;;5.07;2.25;;;28.90;94.90;;;;;;5082053;28;20203;-59
2023/07/16 11:47:22;;;;;;;5.65;2.80;;;28.50;94.70;;;;;;5076071;28;20784;-57
2023/07/16 11:49:50;;;;;;;6.40;2.45;;;28.30;94.20;;;;;;5087813;28;20204;-58
2023/07/16 11:52:20;;;;;;;5.95;1.80;;;28.40;93.20;;;;;;5071134;28;20201;-57
2023/07/16 11:54:49;;;;;;;5.07;2.20;;;28.60;92.00;;;;;;5081238;28;20228;-59
2023/07/16 11:57:17;;;;;;;5.70;2.42;;;28.60;94.10;;;;;;5076674;28;20228;-58
2023/07/16 11:59:45;;;;;;;5.18;2.22;;;29.00;93.00;;;;;;5087808;28;20247;-58
2023/07/16 12:02:14;;;;;;;4.05;2.40;;;28.70;90.80;;;;;;5076845;28;20325;-58
2023/07/16 12:04:42;;;;;;;9.10;2.67;;;28.00;92.00;;;;;;5081248;28;20262;-58
2023/07/16 12:07:10;;;;;;;3.38;2.20;;;27.40;92.30;;;;;;5083174;28;20303;-57
2023/07/16 12:09:38;;;;;;;3.90;2.03;;;27.20;93.00;;;;;;5074191;28;20201;-58
2023/07/16 12:12:07;;;;;;;3.55;2.40;;;26.90;93.50;;;;;;5086862;28;20242;-59
2023/07/16 12:14:36;;;;;;;4.80;2.65;;;26.90;93.60;;;;;;5081058;28;20238;-58
2023/07/16 12:17:04;;;;;;;3.17;2.17;;;27.30;94.00;;;;;;5082071;28;20252;-58
2023/07/16 12:19:33;;;;;;;3.45;2.40;;;27.30;94.20;;;;;;5091332;28;20203;-58
2023/07/16 12:22:01;;;;;;;4.38;2.55;;;27.10;93.40;;;;;;5061913;28;20283;-59
2023/07/16 12:24:29;;;;;;;6.13;2.72;;;26.90;93.60;;;;;;5086437;28;20307;-58
2023/07/16 12:26:57;;;;;;;5.03;2.40;;;26.80;93.70;;;;;;5086102;28;20255;-57
2023/07/16 12:29:25;;;;;;;3.65;2.45;;;27.20;93.30;;;;;;5078998;28;20209;-58
2023/07/16 12:31:53;;;;;;;3.85;2.28;;;27.50;93.30;;;;;;5090986;28;20205;-58
2023/07/16 12:34:21;;;;;;;3.25;2.40;;;28.00;91.50;;;;;;5081018;28;20637;-58
2023/07/16 12:36:50;;;;;;;3.28;2.22;;;28.50;92.20;;;;;;5083620;28;20223;-59
2023/07/16 12:39:18;;;;;;;5.50;2.70;;;28.80;90.60;;;;;;5089080;28;20200;-58
2023/07/16 12:41:47;;;;;;;4.15;2.42;;;29.10;89.10;;;;;;5077916;28;20265;-57
2023/07/16 12:44:15;;;;;;;3.97;2.30;;;29.30;89.20;;;;;;5088399;28;20213;-59
2023/07/16 12:46:42;;;;;;;4.68;2.85;;;28.90;88.10;;;;;;5083638;28;20216;-57
2023/07/16 12:49:11;;;;;;;6.97;3.13;;;29.00;89.00;;;;;;5080587;28;20205;-57
2023/07/16 12:51:38;;;;;;;3.72;3.17;;;29.00;86.90;;;;;;5090957;28;20204;-58
2023/07/16 12:54:08;;;;;;;7.18;3.03;;;29.00;88.30;;;;;;5089558;28;20200;-57